AFR1687 EGPH-LFPG
Flight info
| Callsign | AFR1687 |
|---|---|
| Flight time | N/A |
| Altitude | 32000 |
| Route | GOSAM P600 FENIK L612 ELBUS DCT NAVSO DCT AKOMU DCT VAMEB UL612 EMKUK DCT SFD UM605 BIBAX |
| Aircraft | A21N/M-SDE2E3FGHIRWXY/LB1 |
Departure
| Time | 2026-05-05 18:22 |
|---|---|
| Airport | Edinburgh Airport (EGPH) |
Arrival
| Time | N/A |
|---|---|
| Airport | Charles de Gaulle International Airport (LFPG) |
| Time | Latitude | Longitude | Altitude | Speed | Heading |
|---|---|---|---|---|---|
| 2026-05-05 17:48 | 55.94908 | -3.36498 | 105 ft | 0 kts | 148° |
| 2026-05-05 18:08 | 55.94915 | -3.36506 | 105 ft | 2 kts | 148° |
| 2026-05-05 18:08 | 55.94928 | -3.36521 | 105 ft | 2 kts | 148° |
| 2026-05-05 18:08 | 55.94941 | -3.36535 | 105 ft | 1 kts | 148° |
| 2026-05-05 18:09 | 55.94949 | -3.36545 | 105 ft | 2 kts | 129° |
| 2026-05-05 18:09 | 55.94953 | -3.36570 | 105 ft | 2 kts | 84° |
| 2026-05-05 18:09 | 55.94951 | -3.36585 | 105 ft | 1 kts | 59° |
| 2026-05-05 18:09 | 55.94947 | -3.36596 | 105 ft | 0 kts | 58° |
| 2026-05-05 18:14 | 55.94950 | -3.36588 | 105 ft | 1 kts | 58° |
| 2026-05-05 18:15 | 55.94958 | -3.36566 | 105 ft | 2 kts | 59° |
| 2026-05-05 18:15 | 55.94970 | -3.36529 | 105 ft | 4 kts | 59° |
| 2026-05-05 18:15 | 55.94987 | -3.36479 | 105 ft | 5 kts | 59° |
| 2026-05-05 18:15 | 55.95011 | -3.36418 | 105 ft | 6 kts | 43° |
| 2026-05-05 18:16 | 55.95055 | -3.36412 | 105 ft | 7 kts | 319° |
| 2026-05-05 18:16 | 55.95054 | -3.36508 | 105 ft | 9 kts | 245° |
| 2026-05-05 18:16 | 55.95020 | -3.36616 | 105 ft | 10 kts | 239° |
| 2026-05-05 18:16 | 55.94980 | -3.36737 | 105 ft | 11 kts | 239° |
| 2026-05-05 18:17 | 55.94935 | -3.36869 | 105 ft | 13 kts | 239° |
| 2026-05-05 18:17 | 55.94886 | -3.37013 | 105 ft | 14 kts | 239° |
| 2026-05-05 18:17 | 55.94834 | -3.37166 | 105 ft | 14 kts | 239° |
| 2026-05-05 18:17 | 55.94779 | -3.37329 | 105 ft | 15 kts | 239° |
| 2026-05-05 18:18 | 55.94721 | -3.37499 | 105 ft | 16 kts | 239° |
| 2026-05-05 18:18 | 55.94663 | -3.37671 | 106 ft | 16 kts | 239° |
| 2026-05-05 18:18 | 55.94604 | -3.37845 | 106 ft | 16 kts | 239° |
| 2026-05-05 18:18 | 55.94545 | -3.38021 | 107 ft | 16 kts | 239° |
| 2026-05-05 18:19 | 55.94485 | -3.38195 | 109 ft | 16 kts | 239° |
| 2026-05-05 18:19 | 55.94429 | -3.38363 | 110 ft | 15 kts | 239° |
| 2026-05-05 18:19 | 55.94374 | -3.38525 | 112 ft | 14 kts | 239° |
| 2026-05-05 18:19 | 55.94321 | -3.38682 | 113 ft | 14 kts | 239° |
| 2026-05-05 18:20 | 55.94286 | -3.38815 | 115 ft | 10 kts | 274° |
| 2026-05-05 18:20 | 55.94333 | -3.38914 | 115 ft | 11 kts | 326° |
| 2026-05-05 18:20 | 55.94407 | -3.38949 | 114 ft | 12 kts | 30° |
| 2026-05-05 18:20 | 55.94465 | -3.38824 | 114 ft | 13 kts | 58° |
| 2026-05-05 18:21 | 55.94494 | -3.38738 | 113 ft | 0 kts | 60° |
| 2026-05-05 18:21 | 55.94595 | -3.38436 | 110 ft | 70 kts | 60° |
| 2026-05-05 18:21 | 55.94986 | -3.37280 | 106 ft | 145 kts | 61° |
| 2026-05-05 18:22 | 55.95587 | -3.35500 | 497 ft | 176 kts | 60° |
| 2026-05-05 18:22 | 55.96254 | -3.33656 | 1198 ft | 184 kts | 53° |
| 2026-05-05 18:22 | 55.97203 | -3.31984 | 1708 ft | 201 kts | 43° |
| 2026-05-05 18:22 | 55.98315 | -3.30320 | 2240 ft | 218 kts | 42° |
| 2026-05-05 18:23 | 55.99546 | -3.28550 | 2761 ft | 235 kts | 34° |
| 2026-05-05 18:23 | 56.01135 | -3.27727 | 3281 ft | 252 kts | 2° |
| 2026-05-05 18:23 | 56.02829 | -3.28591 | 3993 ft | 262 kts | 330° |
| 2026-05-05 18:23 | 56.04048 | -3.30985 | 4739 ft | 269 kts | 298° |
| 2026-05-05 18:24 | 56.04390 | -3.34271 | 5502 ft | 274 kts | 265° |
| 2026-05-05 18:24 | 56.03757 | -3.37443 | 6260 ft | 276 kts | 241° |
| 2026-05-05 18:24 | 56.02799 | -3.40405 | 7002 ft | 277 kts | 245° |
| 2026-05-05 18:24 | 56.02017 | -3.43534 | 7722 ft | 277 kts | 252° |
| 2026-05-05 18:25 | 56.01401 | -3.46784 | 8449 ft | 276 kts | 256° |
| 2026-05-05 18:25 | 56.01049 | -3.48974 | 8928 ft | 276 kts | 258° |
| 2026-05-05 18:25 | 56.00396 | -3.53400 | 9847 ft | 276 kts | 259° |
| 2026-05-05 18:25 | 55.99925 | -3.56697 | 10457 ft | 279 kts | 259° |
| 2026-05-05 18:26 | 55.99439 | -3.60140 | 10764 ft | 294 kts | 259° |
| 2026-05-05 18:26 | 55.98922 | -3.63788 | 11039 ft | 308 kts | 259° |
| 2026-05-05 18:26 | 55.98385 | -3.67556 | 11312 ft | 322 kts | 258° |
| 2026-05-05 18:26 | 55.97821 | -3.71481 | 11746 ft | 330 kts | 258° |
| 2026-05-05 18:27 | 55.97242 | -3.75496 | 12368 ft | 332 kts | 257° |
| 2026-05-05 18:27 | 55.96667 | -3.79469 | 12959 ft | 334 kts | 257° |
| 2026-05-05 18:27 | 55.96083 | -3.83495 | 13528 ft | 336 kts | 257° |
| 2026-05-05 18:27 | 55.95495 | -3.87537 | 14064 ft | 339 kts | 257° |
| 2026-05-05 18:28 | 55.94307 | -3.95689 | 15123 ft | 344 kts | 257° |
| 2026-05-05 18:28 | 55.93777 | -3.99885 | 15631 ft | 347 kts | 260° |
| 2026-05-05 18:28 | 55.93064 | -4.04033 | 16113 ft | 353 kts | 245° |
| 2026-05-05 18:29 | 55.91584 | -4.07489 | 16600 ft | 361 kts | 225° |
| 2026-05-05 18:29 | 55.89449 | -4.09861 | 17087 ft | 368 kts | 206° |
| 2026-05-05 18:29 | 55.87067 | -4.11549 | 17588 ft | 370 kts | 206° |
| 2026-05-05 18:29 | 55.84721 | -4.13522 | 18023 ft | 372 kts | 211° |
| 2026-05-05 18:30 | 55.82484 | -4.15828 | 18464 ft | 373 kts | 215° |
| 2026-05-05 18:30 | 55.80322 | -4.18305 | 18927 ft | 375 kts | 216° |
| 2026-05-05 18:30 | 55.78141 | -4.20918 | 19363 ft | 377 kts | 217° |
| 2026-05-05 18:30 | 55.75983 | -4.23599 | 19828 ft | 379 kts | 218° |
| 2026-05-05 18:31 | 55.73708 | -4.25983 | 20206 ft | 386 kts | 204° |
| 2026-05-05 18:31 | 55.71053 | -4.26867 | 20579 ft | 395 kts | 183° |
| 2026-05-05 18:31 | 55.68341 | -4.26036 | 21013 ft | 403 kts | 162° |
| 2026-05-05 18:31 | 55.65830 | -4.23779 | 21452 ft | 407 kts | 153° |
| 2026-05-05 18:32 | 55.63370 | -4.21298 | 21845 ft | 409 kts | 153° |
| 2026-05-05 18:32 | 55.60895 | -4.18817 | 22217 ft | 411 kts | 153° |
| 2026-05-05 18:32 | 55.58412 | -4.16354 | 22620 ft | 413 kts | 153° |
| 2026-05-05 18:32 | 55.55890 | -4.13875 | 23004 ft | 414 kts | 153° |
| 2026-05-05 18:33 | 55.53373 | -4.11415 | 23367 ft | 416 kts | 153° |
| 2026-05-05 18:33 | 55.50837 | -4.08944 | 23721 ft | 418 kts | 153° |
| 2026-05-05 18:33 | 55.48270 | -4.06449 | 24069 ft | 420 kts | 153° |
| 2026-05-05 18:33 | 55.45692 | -4.03947 | 24403 ft | 422 kts | 153° |
| 2026-05-05 18:34 | 55.43138 | -4.01473 | 24722 ft | 424 kts | 153° |
| 2026-05-05 18:34 | 55.40516 | -3.98932 | 25048 ft | 426 kts | 153° |
| 2026-05-05 18:34 | 55.37938 | -3.96439 | 25353 ft | 428 kts | 153° |
| 2026-05-05 18:34 | 55.35307 | -3.93897 | 25662 ft | 430 kts | 153° |
| 2026-05-05 18:35 | 55.32700 | -3.91382 | 25960 ft | 432 kts | 153° |
| 2026-05-05 18:35 | 55.30071 | -3.88849 | 26243 ft | 434 kts | 153° |
| 2026-05-05 18:35 | 55.27428 | -3.86309 | 26537 ft | 435 kts | 153° |
| 2026-05-05 18:35 | 55.24731 | -3.83719 | 26822 ft | 437 kts | 153° |
| 2026-05-05 18:36 | 55.22058 | -3.81194 | 27097 ft | 438 kts | 154° |
| 2026-05-05 18:36 | 55.19336 | -3.78841 | 27368 ft | 440 kts | 155° |
| 2026-05-05 18:36 | 55.16595 | -3.76482 | 27641 ft | 441 kts | 155° |
| 2026-05-05 18:36 | 55.13831 | -3.74104 | 27905 ft | 443 kts | 155° |
| 2026-05-05 18:37 | 55.11045 | -3.71710 | 28160 ft | 445 kts | 155° |
| 2026-05-05 18:37 | 55.08286 | -3.69345 | 28411 ft | 446 kts | 155° |
| 2026-05-05 18:37 | 55.05485 | -3.66947 | 28654 ft | 447 kts | 155° |
| 2026-05-05 18:37 | 55.02688 | -3.64560 | 28904 ft | 449 kts | 155° |
| 2026-05-05 18:38 | 54.99896 | -3.62176 | 29175 ft | 449 kts | 155° |
| 2026-05-05 18:38 | 54.97102 | -3.59795 | 29512 ft | 448 kts | 155° |
| 2026-05-05 18:38 | 54.94312 | -3.57420 | 29861 ft | 446 kts | 155° |
| 2026-05-05 18:38 | 54.91519 | -3.55046 | 30179 ft | 445 kts | 155° |
| 2026-05-05 18:39 | 54.88753 | -3.52700 | 30459 ft | 445 kts | 155° |
| 2026-05-05 18:39 | 54.85972 | -3.50343 | 30735 ft | 445 kts | 155° |
| 2026-05-05 18:39 | 54.83153 | -3.47960 | 31009 ft | 444 kts | 155° |
| 2026-05-05 18:39 | 54.80394 | -3.45631 | 31265 ft | 444 kts | 155° |
| 2026-05-05 18:40 | 54.77625 | -3.43298 | 31489 ft | 444 kts | 155° |
| 2026-05-05 18:40 | 54.74858 | -3.40969 | 31693 ft | 445 kts | 156° |
| 2026-05-05 18:40 | 54.72075 | -3.38630 | 31889 ft | 446 kts | 156° |
| 2026-05-05 18:40 | 54.69253 | -3.36263 | 32091 ft | 446 kts | 156° |
| 2026-05-05 18:41 | 54.67378 | -3.34692 | 32224 ft | 447 kts | 157° |